Time;durP1;ratioP1;P1;durP2;ratioP2;P2;SDS_P1;SDS_P2;PMS_P1;PMS_P2;Temp;Humidity;BMP_temperature;BMP_pressure;BME280_temperature;BME280_humidity;BME280_pressure;Samples;Min_cycle;Max_cycle;Signal;HPM_P1;HPM_P2
2023/08/26 04:01:39;;;;;;;1.47;1.07;;;22.20;99.90;;;;;;5319482;23;20504;-75
2023/08/26 04:04:07;;;;;;;1.93;1.07;;;22.00;99.90;;;;;;4914492;29;20458;-74
2023/08/26 04:06:35;;;;;;;0.60;0.10;;;21.80;99.90;;;;;;4914105;29;20450;-73
2023/08/26 04:09:03;;;;;;;0.60;0.17;;;21.70;99.90;;;;;;4914395;29;20473;-75
2023/08/26 04:11:31;;;;;;;0.60;0.20;;;21.70;99.90;;;;;;4904294;29;20475;-75
2023/08/26 04:13:59;;;;;;;0.87;0.63;;;21.60;99.90;;;;;;4896159;29;20452;-75
2023/08/26 04:16:28;;;;;;;0.90;0.40;;;;;;;;;;4964108;23;20484;31
2023/08/26 04:18:57;;;;;;;0.60;0.20;;;21.40;99.90;;;;;;4890156;29;20462;-72
2023/08/26 04:21:25;;;;;;;1.47;0.90;;;21.40;99.90;;;;;;4893009;29;20461;-72
2023/08/26 04:23:53;;;;;;;0.70;0.40;;;21.40;99.90;;;;;;4893382;29;20788;-72
2023/08/26 04:26:21;;;;;;;0.70;0.33;;;21.30;99.90;;;;;;4884917;29;20840;-72
2023/08/26 04:28:49;;;;;;;1.03;0.93;;;21.20;99.90;;;;;;4858998;29;20908;-72
2023/08/26 04:31:17;;;;;;;0.60;0.10;;;21.20;99.90;;;;;;4858432;29;20487;-72
2023/08/26 04:33:45;;;;;;;0.60;0.17;;;;;;;;;;4857806;29;20911;-71
2023/08/26 04:36:14;;;;;;;0.90;0.20;;;21.20;99.90;;;;;;4867165;29;20467;-71
2023/08/26 04:38:42;;;;;;;0.60;0.10;;;21.20;99.90;;;;;;4866992;29;20538;-72
2023/08/26 04:41:10;;;;;;;0.60;0.20;;;21.20;99.90;;;;;;4864349;29;20544;-72
2023/08/26 04:43:40;;;;;;;0.60;0.30;;;21.30;99.90;;;;;;4852446;29;20459;-70
2023/08/26 04:46:08;;;;;;;0.97;0.33;;;;;;;;;;4840978;29;20465;-71
2023/08/26 04:48:36;;;;;;;0.60;0.10;;;21.20;99.90;;;;;;4841332;29;20450;-71
2023/08/26 04:51:05;;;;;;;1.00;0.40;;;21.20;99.90;;;;;;4848572;29;20576;-71
2023/08/26 04:53:35;;;;;;;0.60;0.10;;;21.20;99.90;;;;;;4842300;29;20557;-71
2023/08/26 04:56:03;;;;;;;2.30;0.73;;;21.20;99.90;;;;;;4850664;29;20955;-71
2023/08/26 04:58:31;;;;;;;0.60;0.10;;;21.20;99.90;;;;;;4843956;29;20869;-71
2023/08/26 05:00:59;;;;;;;0.70;0.37;;;21.20;99.90;;;;;;4849524;29;20478;-71
2023/08/26 05:03:27;;;;;;;0.60;0.10;;;21.20;99.90;;;;;;4861982;29;20462;-71
2023/08/26 05:05:55;;;;;;;0.60;0.20;;;21.20;99.90;;;;;;4861987;29;20521;-71
2023/08/26 05:08:23;;;;;;;0.70;0.23;;;21.10;99.90;;;;;;4861881;29;20464;-71
2023/08/26 05:10:52;;;;;;;0.60;0.10;;;21.10;99.90;;;;;;4861546;29;20490;-71
2023/08/26 05:13:20;;;;;;;0.60;0.10;;;;;;;;;;4861744;29;20489;-71
2023/08/26 05:15:48;;;;;;;0.60;0.20;;;21.20;99.90;;;;;;4861855;29;20496;-70
2023/08/26 05:18:18;;;;;;;1.07;0.73;;;21.20;99.90;;;;;;4861761;29;20485;-70
2023/08/26 05:20:46;;;;;;;0.60;0.10;;;21.10;99.90;;;;;;4861623;29;20538;-70
2023/08/26 05:23:15;;;;;;;0.60;0.10;;;21.20;99.90;;;;;;4861129;29;20488;-70
2023/08/26 05:25:46;;;;;;;0.60;0.10;;;21.10;99.90;;;;;;4862305;29;20478;-70
2023/08/26 05:28:16;;;;;;;0.60;0.10;;;21.20;99.90;;;;;;4862810;29;20470;-71
2023/08/26 05:30:44;;;;;;;0.70;0.57;;;21.10;99.90;;;;;;4862760;29;20740;-71
2023/08/26 05:33:12;;;;;;;0.60;0.20;;;21.10;99.90;;;;;;4863980;29;20458;-71
2023/08/26 05:35:40;;;;;;;0.60;0.30;;;21.10;99.90;;;;;;4862185;29;21023;-71
2023/08/26 05:38:08;;;;;;;0.60;0.10;;;21.20;99.90;;;;;;4861901;29;20514;-71
2023/08/26 05:40:36;;;;;;;0.80;0.73;;;21.20;99.90;;;;;;4861560;29;20455;-71
2023/08/26 05:43:04;;;;;;;0.70;0.30;;;21.20;99.90;;;;;;4859083;29;20468;-72
2023/08/26 05:45:33;;;;;;;0.60;0.20;;;21.20;99.90;;;;;;4842841;29;21025;-72
2023/08/26 05:48:01;;;;;;;0.60;0.20;;;21.10;99.90;;;;;;4843554;29;20487;-71
2023/08/26 05:50:29;;;;;;;0.60;0.10;;;;;;;;;;4859696;29;20569;-71
2023/08/26 05:52:57;;;;;;;0.60;0.20;;;;;;;;;;4861711;29;20922;-71
2023/08/26 05:55:25;;;;;;;0.60;0.10;;;;;;;;;;4846891;29;20488;-71
2023/08/26 05:57:53;;;;;;;0.60;0.10;;;21.20;99.90;;;;;;4843415;29;20472;-71
2023/08/26 06:00:25;;;;;;;0.70;0.30;;;;;;;;;;4858172;29;20448;-72
2023/08/26 06:02:55;;;;;;;1.37;0.30;;;21.20;99.90;;;;;;4861260;29;20473;-72
2023/08/26 06:05:23;;;;;;;0.60;0.10;;;21.20;99.90;;;;;;4860629;29;20459;-72
2023/08/26 06:07:51;;;;;;;0.60;0.10;;;21.20;99.90;;;;;;4860667;29;20469;-72
2023/08/26 06:10:19;;;;;;;0.60;0.10;;;21.20;99.90;;;;;;4874116;29;20455;-72
2023/08/26 06:12:47;;;;;;;0.60;0.17;;;21.20;99.90;;;;;;4859497;29;20495;-72
2023/08/26 06:15:15;;;;;;;0.60;0.10;;;21.10;99.90;;;;;;4871596;29;20550;-71
2023/08/26 06:17:43;;;;;;;0.60;0.20;;;21.00;99.90;;;;;;4879400;29;20507;-72
2023/08/26 06:20:13;;;;;;;0.60;0.20;;;21.00;98.80;;;;;;4877842;29;20465;-72
2023/08/26 06:22:45;;;;;;;0.60;0.10;;;21.00;99.90;;;;;;4882279;29;20433;-72
2023/08/26 06:25:13;;;;;;;0.60;0.10;;;21.00;99.90;;;;;;4878777;29;20461;-71
2023/08/26 06:27:41;;;;;;;0.60;0.23;;;21.00;99.90;;;;;;4871970;29;20479;-71
2023/08/26 06:30:10;;;;;;;0.70;0.27;;;21.00;99.90;;;;;;4874959;29;20449;-71
2023/08/26 06:32:38;;;;;;;0.60;0.10;;;20.90;99.90;;;;;;4860603;29;20478;-72
2023/08/26 06:35:06;;;;;;;0.70;0.33;;;20.90;99.90;;;;;;4849906;29;20543;-71
2023/08/26 06:37:36;;;;;;;0.60;0.10;;;20.90;99.90;;;;;;4853576;29;20471;-71
2023/08/26 06:40:05;;;;;;;0.60;0.10;;;20.90;99.90;;;;;;4851339;29;20520;-71
2023/08/26 06:42:33;;;;;;;0.70;0.20;;;20.60;94.60;;;;;;4849375;29;20447;-71
2023/08/26 06:45:01;;;;;;;0.60;0.20;;;20.50;94.70;;;;;;4859672;29;21044;-70
2023/08/26 06:47:29;;;;;;;0.70;0.30;;;;;;;;;;4860266;29;20488;-71
2023/08/26 06:49:57;;;;;;;0.70;0.20;;;20.40;91.50;;;;;;4861078;29;20507;-71
2023/08/26 06:52:25;;;;;;;0.60;0.20;;;20.30;92.10;;;;;;4860637;29;20840;-71
2023/08/26 06:54:54;;;;;;;0.60;0.17;;;20.40;94.10;;;;;;4858346;29;20856;-71
2023/08/26 06:57:22;;;;;;;0.60;0.10;;;20.40;89.70;;;;;;4868924;29;20560;-71
2023/08/26 06:59:50;;;;;;;0.60;0.20;;;20.50;91.00;;;;;;4860495;29;20449;-71
2023/08/26 07:02:17;;;;;;;0.60;0.20;;;20.60;88.80;;;;;;4860145;29;20496;-70
2023/08/26 07:04:45;;;;;;;0.60;0.13;;;20.60;89.10;;;;;;4859607;29;20502;-69
2023/08/26 07:07:13;;;;;;;0.60;0.10;;;;;;;;;;4859760;29;20561;-69
2023/08/26 07:09:41;;;;;;;0.60;0.10;;;20.70;88.20;;;;;;4859568;29;20493;-69
2023/08/26 07:12:12;;;;;;;0.60;0.10;;;20.70;85.10;;;;;;4859995;29;20522;-70
2023/08/26 07:14:40;;;;;;;7.57;7.23;;;;;;;;;;4850138;29;20809;-70
2023/08/26 07:17:08;;;;;;;0.60;0.20;;;20.80;81.40;;;;;;4852711;29;20485;-70
2023/08/26 07:19:36;;;;;;;0.60;0.13;;;;;;;;;;4845649;29;20900;-70
2023/08/26 07:22:04;;;;;;;0.60;0.20;;;20.90;80.20;;;;;;4841370;29;20452;-71
2023/08/26 07:24:32;;;;;;;0.60;0.10;;;21.00;79.70;;;;;;4840910;29;20466;-70
2023/08/26 07:26:59;;;;;;;0.60;0.10;;;21.00;69.40;;;;;;4854018;29;20485;-70
2023/08/26 07:29:31;;;;;;;0.90;0.53;;;20.80;52.50;;;;;;4859104;29;20494;-70
2023/08/26 07:31:59;;;;;;;0.60;0.20;;;20.80;55.50;;;;;;4858976;29;20584;-70
2023/08/26 07:34:27;;;;;;;0.60;0.10;;;;;;;;;;4859183;29;20534;-70
2023/08/26 07:36:56;;;;;;;0.60;0.20;;;;;;;;;;4859087;29;20569;-69
2023/08/26 07:39:24;;;;;;;0.60;0.10;;;20.70;47.80;;;;;;4860077;29;20485;-70
2023/08/26 07:41:52;;;;;;;1.00;0.50;;;20.60;37.10;;;;;;4860795;29;20459;-70
2023/08/26 07:44:20;;;;;;;0.60;0.10;;;20.60;47.80;;;;;;4860133;29;20472;-70
2023/08/26 07:46:50;;;;;;;0.60;0.20;;;20.60;41.90;;;;;;4860024;29;20768;-70
2023/08/26 07:49:20;;;;;;;0.60;0.20;;;20.50;42.70;;;;;;4855437;29;20465;-70
2023/08/26 07:51:48;;;;;;;0.60;0.10;;;20.60;46.50;;;;;;4840465;29;20554;-70
2023/08/26 07:54:16;;;;;;;0.60;0.20;;;;;;;;;;4840380;29;20451;-70
2023/08/26 07:56:44;;;;;;;0.60;0.20;;;20.90;45.40;;;;;;4850795;29;20513;-71
2023/08/26 07:59:12;;;;;;;0.60;0.10;;;20.80;44.10;;;;;;4859151;29;20453;-70
2023/08/26 08:01:40;;;;;;;0.60;0.20;;;20.90;48.20;;;;;;4858512;29;20549;-71
2023/08/26 08:04:09;;;;;;;0.60;0.10;;;21.00;46.80;;;;;;4859002;29;20549;-71
2023/08/26 08:06:37;;;;;;;0.60;0.10;;;21.10;50.90;;;;;;4857983;29;20470;-71
2023/08/26 08:09:05;;;;;;;4.43;0.50;;;;;;;;;;4858520;29;20986;-71
2023/08/26 08:11:33;;;;;;;0.60;0.20;;;21.20;43.00;;;;;;4858804;29;20490;-70
2023/08/26 08:14:01;;;;;;;0.60;0.10;;;;;;;;;;4858536;29;20456;-71
2023/08/26 08:16:29;;;;;;;0.60;0.10;;;21.40;49.80;;;;;;4852943;29;20478;-71
2023/08/26 08:18:57;;;;;;;1.43;1.33;;;21.60;52.40;;;;;;4854096;29;20461;-70
2023/08/26 08:21:26;;;;;;;0.60;0.20;;;21.60;48.50;;;;;;4858965;29;20500;-70
2023/08/26 08:23:54;;;;;;;0.60;0.10;;;;;;;;;;4857210;29;20537;-70
2023/08/26 08:26:22;;;;;;;0.60;0.20;;;21.40;45.90;;;;;;4852188;29;20493;-71
2023/08/26 08:28:50;;;;;;;0.60;0.10;;;;;;;;;;4858940;29;20468;-70
2023/08/26 08:31:19;;;;;;;0.60;0.10;;;21.20;47.40;;;;;;4861595;29;20455;-70
2023/08/26 08:33:47;;;;;;;0.70;0.30;;;;;;;;;;4853175;29;20530;-70
2023/08/26 08:36:15;;;;;;;0.87;0.20;;;21.10;35.20;;;;;;4852543;29;20440;-70
2023/08/26 08:38:44;;;;;;;0.60;0.20;;;21.20;36.90;;;;;;4851845;29;20516;-71
2023/08/26 08:41:12;;;;;;;0.60;0.20;;;21.30;38.20;;;;;;4853779;29;20941;-70
2023/08/26 08:43:44;;;;;;;0.60;0.10;;;21.40;35.50;;;;;;4851892;29;20456;-70
2023/08/26 08:46:14;;;;;;;2.03;0.93;;;21.30;28.60;;;;;;4852311;29;20447;-70
2023/08/26 08:48:43;;;;;;;0.60;0.20;;;21.40;34.00;;;;;;4846326;29;20890;-72
2023/08/26 08:51:12;;;;;;;0.60;0.10;;;21.40;39.50;;;;;;4859140;29;20470;-71
2023/08/26 08:53:46;;;;;;;0.70;0.20;;;19.50;31.50;;;;;;4851209;29;20490;-73
2023/08/26 08:56:17;;;;;;;1.23;0.30;;;21.20;18.50;;;;;;4846940;29;20457;-73
2023/08/26 08:58:47;;;;;;;0.60;0.10;;;21.30;27.20;;;;;;4857904;29;20492;-73
2023/08/26 09:01:18;;;;;;;0.70;0.63;;;21.30;30.70;;;;;;4854084;29;20447;-73
2023/08/26 09:03:47;;;;;;;3.13;0.63;;;21.40;30.90;;;;;;4850985;29;20936;-72
2023/08/26 09:06:15;;;;;;;0.93;0.20;;;21.50;34.80;;;;;;4857081;29;20510;-72
2023/08/26 09:08:45;;;;;;;1.00;0.40;;;21.50;26.00;;;;;;4872854;29;20453;-72
2023/08/26 09:11:14;;;;;;;0.60;0.20;;;21.40;27.60;;;;;;4867711;29;20479;-73
2023/08/26 09:13:44;;;;;;;0.60;0.10;;;;;;;;;;4859738;29;20503;-73
2023/08/26 09:16:12;;;;;;;0.90;0.40;;;;;;;;;;4851751;29;20447;-72
2023/08/26 09:18:41;;;;;;;1.00;0.40;;;21.50;22.20;;;;;;4855733;29;20474;-72
2023/08/26 09:21:09;;;;;;;0.60;0.17;;;21.40;24.70;;;;;;4851664;29;20446;-72
2023/08/26 09:23:42;;;;;;;0.60;0.10;;;21.50;28.50;;;;;;4854359;29;20449;-73
2023/08/26 09:26:10;;;;;;;1.90;0.30;;;;;;;;;;4853037;29;21629;-73
2023/08/26 09:28:49;;;;;;;0.60;0.20;;;21.50;24.60;;;;;;4858371;29;20452;-71
2023/08/26 09:31:17;;;;;;;0.60;0.17;;;21.50;26.60;;;;;;4854478;29;20456;-71
2023/08/26 09:33:49;;;;;;;1.60;0.80;;;21.50;21.30;;;;;;4850748;29;20490;-71
2023/08/26 09:36:17;;;;;;;1.10;0.20;;;21.20;21.70;;;;;;4853708;29;21079;-72
2023/08/26 09:38:49;;;;;;;0.60;0.10;;;;;;;;;;4855364;29;20458;-72
2023/08/26 09:41:21;;;;;;;0.60;0.10;;;21.40;27.30;;;;;;4851674;29;20458;-72
2023/08/26 09:43:50;;;;;;;0.60;0.10;;;21.70;25.60;;;;;;4849182;29;20463;-72
2023/08/26 09:46:20;;;;;;;0.60;0.20;;;21.70;28.50;;;;;;4844476;29;20472;-70
2023/08/26 09:48:49;;;;;;;0.60;0.20;;;21.70;23.60;;;;;;4861262;29;20450;-71
2023/08/26 09:51:27;;;;;;;0.60;0.10;;;21.90;23.20;;;;;;4863441;29;20974;-70
2023/08/26 09:53:55;;;;;;;0.60;0.10;;;22.00;24.10;;;;;;4862516;29;20579;-71
2023/08/26 09:56:24;;;;;;;0.60;0.10;;;22.10;22.80;;;;;;4861978;29;20557;-71
2023/08/26 09:58:54;;;;;;;0.60;0.10;;;22.10;20.20;;;;;;4862355;29;20450;-71
2023/08/26 10:01:23;;;;;;;1.10;0.50;;;22.10;24.70;;;;;;4862185;29;20458;-70
2023/08/26 10:03:54;;;;;;;0.60;0.10;;;22.00;27.20;;;;;;4860523;29;20538;-73
2023/08/26 10:06:24;;;;;;;0.60;0.20;;;22.10;27.90;;;;;;4844126;29;20528;-72
2023/08/26 10:08:59;;;;;;;0.60;0.10;;;22.10;30.90;;;;;;4852617;29;20538;-71
2023/08/26 10:11:29;;;;;;;0.60;0.10;;;22.10;33.60;;;;;;4852036;29;20490;-71
2023/08/26 10:14:01;;;;;;;0.60;0.10;;;22.30;33.70;;;;;;4851335;29;20490;-72
2023/08/26 10:19:18;;;;;;;0.60;0.10;;;22.50;35.20;;;;;;4913785;29;20883;-71
2023/08/26 10:21:46;;;;;;;0.60;0.10;;;22.50;39.60;;;;;;4917058;29;20719;-68
2023/08/26 10:24:16;;;;;;;0.60;0.20;;;22.50;41.60;;;;;;4916791;29;20470;-71
2023/08/26 10:26:44;;;;;;;0.60;0.20;;;22.50;26.00;;;;;;4914841;29;20538;-72
2023/08/26 10:29:14;;;;;;;0.60;0.17;;;22.50;36.60;;;;;;4885791;29;20460;-71
2023/08/26 10:31:45;;;;;;;4.80;2.30;;;22.50;33.00;;;;;;4880041;29;20450;-72
2023/08/26 10:34:15;;;;;;;0.70;0.40;;;22.40;24.40;;;;;;4879602;29;20504;-69
2023/08/26 10:36:47;;;;;;;0.70;0.47;;;22.50;21.90;;;;;;4878993;29;20461;-71
2023/08/26 10:39:16;;;;;;;0.60;0.20;;;22.50;28.70;;;;;;4878963;29;20879;-69
2023/08/26 10:42:09;;;;;;;0.60;0.10;;;22.50;27.60;;;;;;4880607;29;20472;-71
2023/08/26 10:44:40;;;;;;;0.60;0.20;;;22.60;28.60;;;;;;4884269;29;20454;-72
2023/08/26 10:47:09;;;;;;;0.60;0.10;;;22.70;19.20;;;;;;4881998;29;20498;-71
2023/08/26 10:49:37;;;;;;;0.60;0.20;;;22.70;28.30;;;;;;4897384;29;20489;-72
2023/08/26 10:52:10;;;;;;;0.60;0.20;;;22.50;22.40;;;;;;4900537;29;20477;-72
2023/08/26 10:54:38;;;;;;;0.60;0.20;;;22.60;26.00;;;;;;4899849;29;20487;-72
2023/08/26 10:57:07;;;;;;;0.60;0.10;;;22.60;20.00;;;;;;4890444;29;20474;-72
2023/08/26 10:59:36;;;;;;;0.60;0.10;;;22.70;29.10;;;;;;4880463;29;20459;-72
2023/08/26 11:02:08;;;;;;;0.60;0.13;;;22.70;28.90;;;;;;4885452;29;20468;-74
2023/08/26 11:04:41;;;;;;;0.60;0.30;;;22.80;29.00;;;;;;4899318;29;20445;-72
2023/08/26 11:07:15;;;;;;;0.60;0.10;;;22.90;19.50;;;;;;4897939;29;20477;-72
2023/08/26 11:09:42;;;;;;;0.60;0.10;;;22.90;29.00;;;;;;4880445;29;20489;-73
2023/08/26 11:12:24;;;;;;;0.60;0.10;;;23.00;28.40;;;;;;4884034;29;20540;-72
2023/08/26 11:14:52;;;;;;;0.60;0.10;;;23.10;26.80;;;;;;4898332;29;20593;-72
2023/08/26 11:17:22;;;;;;;0.60;0.10;;;23.10;15.10;;;;;;4898492;29;20516;-72
2023/08/26 11:19:51;;;;;;;0.60;0.10;;;23.10;25.30;;;;;;4897750;29;20485;-72
2023/08/26 11:22:24;;;;;;;0.60;0.20;;;23.10;27.80;;;;;;4898393;29;20460;-72
2023/08/26 11:24:52;;;;;;;0.70;0.23;;;;;;;;;;4898436;29;20544;-71
2023/08/26 11:27:20;;;;;;;0.60;0.10;;;23.50;24.70;;;;;;4896107;29;20476;-74
2023/08/26 11:29:48;;;;;;;0.60;0.10;;;;;;;;;;4895092;29;20457;-75
2023/08/26 11:32:16;;;;;;;0.60;0.10;;;23.50;26.80;;;;;;4885553;29;20537;-75
2023/08/26 11:34:45;;;;;;;0.70;0.13;;;23.50;25.50;;;;;;4875443;29;20494;-73
2023/08/26 11:37:13;;;;;;;0.67;0.20;;;23.60;27.40;;;;;;4876787;29;20496;-73
2023/08/26 11:39:41;;;;;;;0.60;0.20;;;23.60;37.80;;;;;;4877080;29;20461;-74
2023/08/26 11:42:13;;;;;;;0.70;0.10;;;23.50;27.80;;;;;;4877099;29;20872;-74
2023/08/26 11:44:44;;;;;;;0.70;0.20;;;23.50;38.40;;;;;;4883241;29;20478;-74
2023/08/26 11:47:13;;;;;;;0.60;0.20;;;23.50;25.50;;;;;;4882002;29;20792;-73
2023/08/26 11:49:43;;;;;;;2.20;0.97;;;23.50;20.90;;;;;;4881842;29;20454;-74
2023/08/26 11:52:12;;;;;;;0.70;0.23;;;23.40;19.80;;;;;;4881283;29;20489;-74
2023/08/26 11:54:40;;;;;;;0.60;0.13;;;;;;;;;;4881824;29;20518;-77
2023/08/26 11:57:09;;;;;;;1.00;0.87;;;23.00;20.30;;;;;;4880585;29;20511;-73
2023/08/26 11:59:39;;;;;;;0.83;0.43;;;23.00;28.90;;;;;;4877636;29;20935;-74
2023/08/26 12:02:21;;;;;;;0.70;0.20;;;23.30;17.40;;;;;;4877856;29;20513;-73
2023/08/26 12:04:57;;;;;;;0.60;0.27;;;23.20;19.60;;;;;;4880021;29;20474;-73
2023/08/26 12:07:26;;;;;;;0.60;0.10;;;23.20;20.60;;;;;;4900752;29;20556;-73
2023/08/26 12:09:54;;;;;;;2.00;1.90;;;23.30;23.10;;;;;;4891468;29;20464;-74
2023/08/26 12:12:23;;;;;;;0.80;0.40;;;23.40;21.50;;;;;;4889987;29;20934;-74
2023/08/26 12:14:51;;;;;;;0.60;0.20;;;23.50;22.50;;;;;;4889984;29;21077;-74
2023/08/26 12:17:19;;;;;;;0.60;0.13;;;23.60;21.10;;;;;;4889035;29;20552;-74
2023/08/26 12:19:47;;;;;;;0.60;0.13;;;;;;;;;;4888689;29;20468;-74
2023/08/26 12:22:16;;;;;;;2.30;0.70;;;23.50;14.60;;;;;;4888610;29;20450;-73
2023/08/26 12:24:45;;;;;;;0.70;0.30;;;23.40;14.80;;;;;;4888052;29;20556;-76
2023/08/26 12:27:14;;;;;;;0.60;0.10;;;23.20;16.90;;;;;;4890993;29;20465;-74
2023/08/26 12:29:42;;;;;;;0.60;0.20;;;23.20;26.60;;;;;;4889184;29;20506;-74
2023/08/26 12:32:10;;;;;;;0.60;0.10;;;;;;;;;;4888644;29;20533;-74
2023/08/26 12:34:38;;;;;;;0.60;0.10;;;23.60;20.40;;;;;;4891375;29;20486;-74
2023/08/26 12:37:06;;;;;;;11.30;8.00;;;23.70;20.00;;;;;;4891398;29;20483;-74
2023/08/26 12:39:34;;;;;;;0.70;0.10;;;23.70;25.70;;;;;;4889072;29;20450;-74
2023/08/26 12:42:03;;;;;;;0.80;0.40;;;24.00;18.70;;;;;;4888993;29;20638;-73
2023/08/26 12:44:31;;;;;;;0.70;0.20;;;;;;;;;;4883235;29;20554;-75
2023/08/26 12:46:59;;;;;;;0.70;0.20;;;24.10;19.80;;;;;;4888539;29;20484;-74
2023/08/26 12:49:27;;;;;;;0.70;0.20;;;24.10;19.10;;;;;;4890974;29;20456;-74
2023/08/26 12:51:55;;;;;;;0.70;0.30;;;24.10;28.40;;;;;;4890704;29;20454;-75
2023/08/26 12:54:23;;;;;;;0.70;0.20;;;24.20;19.80;;;;;;4888385;29;20517;-75
2023/08/26 12:56:51;;;;;;;0.70;0.10;;;;;;;;;;4888477;29;20520;-75
2023/08/26 12:59:20;;;;;;;0.70;0.20;;;24.10;17.20;;;;;;4890077;29;20445;-75
2023/08/26 13:01:48;;;;;;;0.70;0.20;;;23.90;17.10;;;;;;4886767;29;20501;-75
2023/08/26 13:04:16;;;;;;;0.70;0.20;;;23.90;17.70;;;;;;4885890;29;20460;-74
2023/08/26 13:06:44;;;;;;;0.80;0.40;;;23.90;12.80;;;;;;4879807;29;20450;-73
2023/08/26 13:09:12;;;;;;;0.70;0.20;;;23.90;15.00;;;;;;4880234;29;20969;-74
2023/08/26 13:11:39;;;;;;;0.63;0.10;;;23.90;24.30;;;;;;4880680;29;20446;-76
2023/08/26 13:14:07;;;;;;;0.70;0.10;;;23.90;22.70;;;;;;4883641;29;20442;-75
2023/08/26 13:16:37;;;;;;;0.70;0.20;;;24.00;13.80;;;;;;4887679;29;20497;-74
2023/08/26 13:19:05;;;;;;;1.23;0.93;;;24.00;22.50;;;;;;4897771;29;20552;-75
2023/08/26 13:21:33;;;;;;;0.60;0.10;;;24.00;19.70;;;;;;4898301;29;20449;-75
2023/08/26 13:24:01;;;;;;;0.87;0.30;;;24.00;24.40;;;;;;4898233;29;20457;-75
2023/08/26 13:26:29;;;;;;;0.73;0.20;;;24.20;19.30;;;;;;4898233;29;20461;-75
2023/08/26 13:28:56;;;;;;;0.70;0.20;;;24.30;18.10;;;;;;4883715;29;20512;-75
2023/08/26 13:31:24;;;;;;;0.80;0.30;;;24.30;16.90;;;;;;4879546;29;20481;-73
2023/08/26 13:33:53;;;;;;;0.90;0.37;;;24.30;14.40;;;;;;4882685;29;20446;-75
2023/08/26 13:36:21;;;;;;;0.97;0.87;;;24.30;21.80;;;;;;4897433;29;20579;-76
2023/08/26 13:38:49;;;;;;;0.70;0.20;;;23.90;8.20;;;;;;4889795;29;20549;-75
2023/08/26 13:41:17;;;;;;;0.70;0.10;;;23.80;12.80;;;;;;4897140;29;20457;-75
2023/08/26 13:43:45;;;;;;;0.70;0.10;;;23.90;14.30;;;;;;4890110;29;20790;-74
2023/08/26 13:46:13;;;;;;;0.70;0.10;;;24.00;15.80;;;;;;4886530;29;20438;-75
2023/08/26 13:48:41;;;;;;;0.70;0.20;;;24.20;14.60;;;;;;4885309;29;20474;-75
2023/08/26 13:51:10;;;;;;;0.70;0.20;;;24.10;22.90;;;;;;4885266;29;20487;-75
2023/08/26 13:53:38;;;;;;;0.60;0.10;;;24.20;21.80;;;;;;4890081;29;20443;-75
2023/08/26 13:56:06;;;;;;;1.23;1.13;;;24.20;20.70;;;;;;4893520;29;20491;-75
2023/08/26 13:58:34;;;;;;;0.70;0.20;;;24.10;7.70;;;;;;4893343;29;20473;-75
2023/08/26 14:01:03;;;;;;;1.37;0.30;;;23.70;9.30;;;;;;4888474;29;20446;-74
2023/08/26 14:03:31;;;;;;;0.70;0.10;;;23.70;18.20;;;;;;4896626;29;20457;-76
2023/08/26 14:05:59;;;;;;;0.97;0.50;;;;;;;;;;4897638;29;20564;-73
2023/08/26 14:08:28;;;;;;;1.20;0.83;;;23.60;3.90;;;;;;4897658;29;21055;-74
2023/08/26 14:10:56;;;;;;;1.37;1.10;;;23.60;13.60;;;;;;4896421;29;20520;-74
2023/08/26 14:13:24;;;;;;;0.60;0.10;;;23.60;2.40;;;;;;4889438;29;20525;-73
2023/08/26 14:15:52;;;;;;;0.70;0.10;;;23.60;2.90;;;;;;4886451;29;20998;-75
2023/08/26 14:18:20;;;;;;;0.60;0.10;;;23.60;3.50;;;;;;4878835;29;20482;-74
2023/08/26 14:20:48;;;;;;;0.60;0.10;;;23.70;4.30;;;;;;4878099;29;20455;-74
2023/08/26 14:23:16;;;;;;;0.70;0.20;;;23.70;12.30;;;;;;4881084;29;20480;-74
2023/08/26 14:25:46;;;;;;;0.70;0.20;;;;;;;;;;4889188;29;20560;-76
2023/08/26 14:28:14;;;;;;;0.70;0.20;;;24.20;2.80;;;;;;4890134;29;20489;-74
2023/08/26 14:30:41;;;;;;;0.73;0.30;;;24.20;11.10;;;;;;4877000;29;20717;-76
2023/08/26 14:33:09;;;;;;;0.70;0.20;;;24.30;10.90;;;;;;4877688;29;20450;-74
2023/08/26 14:35:37;;;;;;;0.70;0.20;;;24.50;11.40;;;;;;4876984;29;20544;-75
2023/08/26 14:38:05;;;;;;;0.70;0.20;;;24.70;7.00;;;;;;4877279;29;20486;-75
2023/08/26 14:40:33;;;;;;;0.80;0.40;;;24.80;11.20;;;;;;4878319;29;20454;-69
2023/08/26 14:43:02;;;;;;;0.70;0.20;;;24.80;18.80;;;;;;4877832;29;20660;-69
2023/08/26 14:45:30;;;;;;;0.70;0.10;;;24.90;13.90;;;;;;4878360;29;20672;-69
2023/08/26 14:47:57;;;;;;;0.70;0.13;;;25.10;7.00;;;;;;4896656;29;20471;-68
2023/08/26 14:50:26;;;;;;;1.67;0.57;;;25.10;15.70;;;;;;4896759;29;20454;-70
2023/08/26 14:52:53;;;;;;;0.70;0.20;;;24.90;11.30;;;;;;4896338;29;20959;-68
2023/08/26 14:55:21;;;;;;;0.70;0.10;;;24.70;11.70;;;;;;4896379;29;20524;-69
2023/08/26 14:57:49;;;;;;;0.90;0.67;;;24.80;8.40;;;;;;4895430;29;20943;-69
2023/08/26 15:00:18;;;;;;;0.70;0.10;;;24.80;12.60;;;;;;4891610;29;20545;-68
2023/08/26 15:02:46;;;;;;;0.70;0.20;;;24.70;11.20;;;;;;4879231;29;20442;-68
2023/08/26 15:05:14;;;;;;;0.70;0.10;;;24.80;11.30;;;;;;4879456;29;20486;-70
2023/08/26 15:07:42;;;;;;;0.70;0.17;;;24.80;6.80;;;;;;4879451;29;20569;-71
2023/08/26 15:10:11;;;;;;;0.70;0.20;;;24.90;15.30;;;;;;4881927;29;20453;-68
2023/08/26 15:12:38;;;;;;;4.63;2.20;;;25.10;9.00;;;;;;4897530;29;20489;-71
2023/08/26 15:15:07;;;;;;;0.90;0.33;;;25.10;17.50;;;;;;4896292;29;20457;-70
2023/08/26 15:17:36;;;;;;;0.70;0.10;;;24.90;3.30;;;;;;4896321;29;20486;-68
2023/08/26 15:20:05;;;;;;;0.70;0.10;;;25.10;6.60;;;;;;4881208;29;20509;-67
2023/08/26 15:22:34;;;;;;;0.70;0.20;;;;;;;;;;4877760;29;20529;-69
2023/08/26 15:25:03;;;;;;;0.70;0.13;;;25.30;2.60;;;;;;4877884;29;20446;-69
2023/08/26 15:27:31;;;;;;;0.70;0.20;;;25.50;3.80;;;;;;4877287;29;20496;-70
2023/08/26 15:29:59;;;;;;;0.83;0.40;;;25.50;11.70;;;;;;4891075;29;20481;-69
2023/08/26 15:32:27;;;;;;;0.70;0.20;;;25.50;7.30;;;;;;4896275;29;20461;-69
2023/08/26 15:34:56;;;;;;;0.70;0.10;;;25.60;11.60;;;;;;4895969;29;20540;-67
2023/08/26 15:37:24;;;;;;;0.80;0.63;;;25.80;4.00;;;;;;4895892;29;20481;-68
2023/08/26 15:39:52;;;;;;;1.60;1.00;;;25.90;12.20;;;;;;4895892;29;20523;-67
2023/08/26 15:42:20;;;;;;;0.70;0.10;;;26.10;12.00;;;;;;4881082;29;20465;-67
2023/08/26 15:44:47;;;;;;;0.70;0.10;;;26.10;9.10;;;;;;4877435;29;20464;-68
2023/08/26 15:47:15;;;;;;;0.70;0.20;;;26.30;5.00;;;;;;4877369;29;20502;-67
2023/08/26 15:49:43;;;;;;;0.70;0.10;;;26.30;13.00;;;;;;4880283;29;20458;-67
2023/08/26 15:52:12;;;;;;;0.70;0.10;;;26.50;33.00;;;;;;4879669;29;20446;-68
2023/08/26 15:54:40;;;;;;;0.70;0.10;;;26.70;13.10;;;;;;4877536;29;20461;-69
2023/08/26 15:57:08;;;;;;;0.70;0.17;;;26.70;1.10;;;;;;4876894;29;20970;-67
2023/08/26 15:59:35;;;;;;;0.70;0.10;;;26.60;9.70;;;;;;4877206;29;20486;-66
2023/08/26 16:02:03;;;;;;;0.70;0.33;;;26.40;69.60;;;;;;4877176;29;20485;-68
2023/08/26 16:04:31;;;;;;;0.70;0.17;;;24.60;66.60;;;;;;4879175;29;20547;-67
2023/08/26 16:06:59;;;;;;;0.70;0.20;;;26.20;4.90;;;;;;4896154;29;20469;-67
2023/08/26 16:09:28;;;;;;;1.00;0.70;;;26.20;13.70;;;;;;4890376;29;20484;-68
2023/08/26 16:11:56;;;;;;;0.70;0.20;;;26.10;12.60;;;;;;4888728;29;20537;-68
2023/08/26 16:14:24;;;;;;;0.70;0.17;;;25.80;13.00;;;;;;4882760;29;20443;-71
2023/08/26 16:16:54;;;;;;;0.70;0.10;;;25.80;14.90;;;;;;4879091;29;20864;-70
2023/08/26 16:19:22;;;;;;;0.70;0.10;;;25.80;20.80;;;;;;4877287;29;20482;-66
2023/08/26 16:21:50;;;;;;;0.70;0.10;;;26.00;18.70;;;;;;4877221;29;20486;-68
2023/08/26 16:24:17;;;;;;;0.70;0.10;;;26.20;21.10;;;;;;4876418;29;20967;-67
2023/08/26 16:26:47;;;;;;;0.70;0.20;;;26.20;10.20;;;;;;4889955;29;20500;-68
2023/08/26 16:29:14;;;;;;;0.70;0.10;;;26.20;17.60;;;;;;4879177;29;20949;-69
2023/08/26 16:31:42;;;;;;;1.57;1.03;;;26.10;15.60;;;;;;4895016;29;20445;-68
2023/08/26 16:34:10;;;;;;;0.70;0.20;;;26.00;16.30;;;;;;4876833;29;20478;-69
2023/08/26 16:36:38;;;;;;;0.97;0.20;;;25.80;8.30;;;;;;4875841;29;20585;-67
2023/08/26 16:39:06;;;;;;;0.70;0.10;;;25.80;12.90;;;;;;4876034;29;20872;-67
2023/08/26 16:41:34;;;;;;;0.70;0.10;;;25.70;12.00;;;;;;4876383;29;20450;-66
2023/08/26 16:44:03;;;;;;;0.70;0.20;;;25.50;13.80;;;;;;4885945;29;20532;-67
2023/08/26 16:46:32;;;;;;;0.70;0.10;;;25.40;15.40;;;;;;4875836;29;20498;-67
2023/08/26 16:49:00;;;;;;;0.70;0.10;;;25.30;9.30;;;;;;4886649;29;20449;-68
2023/08/26 16:51:28;;;;;;;0.70;0.17;;;25.20;9.40;;;;;;4896536;29;20818;-68
2023/08/26 16:53:56;;;;;;;0.70;0.10;;;25.10;9.00;;;;;;4898562;29;20471;-68
2023/08/26 16:56:24;;;;;;;0.70;0.30;;;25.10;9.70;;;;;;4899418;29;20569;-69
2023/08/26 16:58:54;;;;;;;0.70;0.10;;;25.00;2.00;;;;;;4898260;29;20551;-69
2023/08/26 17:01:23;;;;;;;1.17;0.60;;;25.10;10.90;;;;;;4898493;29;20988;-67
2023/08/26 17:03:51;;;;;;;0.70;0.20;;;24.90;9.90;;;;;;4898658;29;20939;-69
2023/08/26 17:06:19;;;;;;;0.70;0.20;;;25.00;11.70;;;;;;4897327;29;20551;-67
2023/08/26 17:08:47;;;;;;;0.70;0.10;;;24.90;3.30;;;;;;4882923;29;20577;-68